createdAt,value
2018-12-16T00:00:42.344Z,1004.46
2018-12-16T00:01:42.358Z,1004.44
2018-12-16T00:02:42.373Z,1004.51
2018-12-16T00:03:42.382Z,1004.45
2018-12-16T00:04:49.509Z,1004.48
2018-12-16T00:05:42.422Z,1004.42
2018-12-16T00:06:42.401Z,1004.45
2018-12-16T00:07:42.417Z,1004.42
2018-12-16T00:08:42.424Z,1004.43
2018-12-16T00:09:42.439Z,1004.40
2018-12-16T00:10:42.455Z,1004.41
2018-12-16T00:11:42.465Z,1004.38
2018-12-16T00:12:42.468Z,1004.38
2018-12-16T00:13:42.492Z,1004.37
2018-12-16T00:14:42.486Z,1004.37
2018-12-16T00:15:42.492Z,1004.36
2018-12-16T00:16:42.637Z,1004.38
2018-12-16T00:17:42.520Z,1004.32
2018-12-16T00:18:42.557Z,1004.33
2018-12-16T00:19:42.549Z,1004.31
2018-12-16T00:20:42.548Z,1004.33
2018-12-16T00:21:42.559Z,1004.27
2018-12-16T00:22:42.571Z,1004.26
2018-12-16T00:23:42.575Z,1004.25
2018-12-16T00:24:42.592Z,1004.27
2018-12-16T00:25:42.606Z,1004.24
2018-12-16T00:26:42.621Z,1004.22
2018-12-16T00:27:42.625Z,1004.23
2018-12-16T00:28:42.637Z,1004.17
2018-12-16T00:29:42.640Z,1004.19
2018-12-16T00:30:42.676Z,1004.20
2018-12-16T00:31:42.665Z,1004.17
2018-12-16T00:32:42.675Z,1004.23
2018-12-16T00:33:42.720Z,1004.18
2018-12-16T00:34:42.699Z,1004.19
2018-12-16T00:35:42.706Z,1004.18
2018-12-16T00:36:42.729Z,1004.22
2018-12-16T00:37:42.731Z,1004.16
2018-12-16T00:38:42.759Z,1004.11
2018-12-16T00:39:42.755Z,1004.12
2018-12-16T00:40:42.762Z,1004.11
2018-12-16T00:41:42.767Z,1004.12
2018-12-16T00:42:42.783Z,1004.08
2018-12-16T00:43:42.787Z,1004.06
2018-12-16T00:44:42.811Z,1004.08
2018-12-16T00:45:42.830Z,1004.08
2018-12-16T00:46:42.841Z,1004.01
2018-12-16T00:47:42.833Z,1004.00
2018-12-16T00:48:42.849Z,1003.92
2018-12-16T00:49:42.854Z,1003.99
2018-12-16T00:50:42.928Z,1003.94
2018-12-16T00:51:42.890Z,1003.98
2018-12-16T00:52:42.897Z,1003.92
2018-12-16T00:53:42.897Z,1003.88
2018-12-16T00:54:42.929Z,1003.88
2018-12-16T00:55:42.919Z,1003.88
2018-12-16T00:56:42.932Z,1003.86
2018-12-16T00:57:42.947Z,1003.81
2018-12-16T00:58:42.951Z,1003.78
2018-12-16T00:59:42.989Z,1003.78
2018-12-16T01:00:42.971Z,1003.78
2018-12-16T01:01:43.001Z,1003.78
2018-12-16T01:02:43.001Z,1003.71
2018-12-16T01:03:43.006Z,1003.74
2018-12-16T01:04:43.027Z,1003.73
2018-12-16T01:05:43.060Z,1003.67
2018-12-16T01:06:43.039Z,1003.65
2018-12-16T01:07:43.088Z,1003.59
2018-12-16T01:08:43.136Z,1003.62
2018-12-16T01:09:43.079Z,1003.63
2018-12-16T01:10:43.081Z,1003.66
2018-12-16T01:11:43.094Z,1003.61
2018-12-16T01:12:43.107Z,1003.60
2018-12-16T01:13:43.121Z,1003.61
2018-12-16T01:14:43.122Z,1003.56
2018-12-16T01:15:43.143Z,1003.54
2018-12-16T01:16:43.157Z,1003.58
2018-12-16T01:17:43.160Z,1003.54
2018-12-16T01:18:43.173Z,1003.52
2018-12-16T01:19:43.178Z,1003.56
2018-12-16T01:20:43.191Z,1003.57
2018-12-16T01:21:43.219Z,1003.57
2018-12-16T01:22:43.794Z,1003.53
2018-12-16T01:23:43.225Z,1003.59
2018-12-16T01:24:43.246Z,1003.51
2018-12-16T01:25:43.250Z,1003.55
2018-12-16T01:26:43.259Z,1003.53
2018-12-16T01:27:43.270Z,1003.55
2018-12-16T01:28:43.289Z,1003.51
2018-12-16T01:29:43.284Z,1003.47
2018-12-16T01:30:43.305Z,1003.46
2018-12-16T01:31:43.308Z,1003.48
2018-12-16T01:32:43.316Z,1003.47
2018-12-16T01:33:43.329Z,1003.49
2018-12-16T01:34:43.350Z,1003.49
2018-12-16T01:35:43.356Z,1003.47
2018-12-16T01:36:43.367Z,1003.42
2018-12-16T01:37:43.385Z,1003.42
2018-12-16T01:38:43.387Z,1003.43
2018-12-16T01:39:43.434Z,1003.35
2018-12-16T01:40:43.407Z,1003.35
2018-12-16T01:41:43.471Z,1003.38
2018-12-16T01:42:43.425Z,1003.40
2018-12-16T01:43:43.452Z,1003.38
2018-12-16T01:44:43.450Z,1003.39
2018-12-16T01:45:43.463Z,1003.42
2018-12-16T01:46:43.475Z,1003.43
2018-12-16T01:47:43.482Z,1003.44
2018-12-16T01:48:43.496Z,1003.39
2018-12-16T01:49:43.502Z,1003.40
2018-12-16T01:50:43.517Z,1003.41
2018-12-16T01:51:43.522Z,1003.45
2018-12-16T01:52:49.981Z,1003.45
2018-12-16T01:53:43.548Z,1003.42
2018-12-16T01:54:43.559Z,1003.46
2018-12-16T01:55:43.572Z,1003.47
2018-12-16T01:56:43.609Z,1003.45
2018-12-16T01:57:43.591Z,1003.48
2018-12-16T01:58:43.596Z,1003.45
2018-12-16T01:59:43.615Z,1003.41
2018-12-16T02:00:43.626Z,1003.36
2018-12-16T02:01:43.636Z,1003.38
2018-12-16T02:02:43.643Z,1003.32
2018-12-16T02:03:43.654Z,1003.37
2018-12-16T02:04:43.667Z,1003.33
2018-12-16T02:05:43.687Z,1003.31
2018-12-16T02:06:43.696Z,1003.27
2018-12-16T02:07:43.707Z,1003.32
2018-12-16T02:08:43.719Z,1003.29
2018-12-16T02:09:43.720Z,1003.29
2018-12-16T02:10:43.740Z,1003.27
2018-12-16T02:11:43.742Z,1003.26
2018-12-16T02:12:43.750Z,1003.21
2018-12-16T02:13:43.803Z,1003.30
2018-12-16T02:14:43.773Z,1003.26
2018-12-16T02:15:43.781Z,1003.23
2018-12-16T02:16:43.797Z,1003.23
2018-12-16T02:17:43.811Z,1003.25
2018-12-16T02:18:43.820Z,1003.21
2018-12-16T02:19:43.823Z,1003.23
2018-12-16T02:20:43.836Z,1003.20
2018-12-16T02:21:43.853Z,1003.15
2018-12-16T02:22:43.862Z,1003.18
2018-12-16T02:23:43.874Z,1003.18
2018-12-16T02:24:43.880Z,1003.13
2018-12-16T02:25:43.892Z,1003.09
2018-12-16T02:26:43.899Z,1003.03
2018-12-16T02:27:43.927Z,1003.03
2018-12-16T02:28:43.928Z,1003.03
2018-12-16T02:29:43.931Z,1002.99
2018-12-16T02:30:43.966Z,1002.98
2018-12-16T02:31:43.957Z,1002.95
2018-12-16T02:32:43.966Z,1002.89
2018-12-16T02:33:43.979Z,1002.90
2018-12-16T02:34:43.997Z,1002.88
2018-12-16T02:35:44.010Z,1002.88
2018-12-16T02:36:44.017Z,1002.84
2018-12-16T02:37:44.018Z,1002.84
2018-12-16T02:38:44.048Z,1002.84
2018-12-16T02:39:44.037Z,1002.80
2018-12-16T02:40:44.050Z,1002.78
2018-12-16T02:41:44.065Z,1002.76
2018-12-16T02:42:44.077Z,1002.71
2018-12-16T02:43:44.089Z,1002.66
2018-12-16T02:44:44.094Z,1002.65
2018-12-16T02:45:44.107Z,1002.63
2018-12-16T02:46:44.116Z,1002.58
2018-12-16T02:47:44.208Z,1002.55
2018-12-16T02:48:44.138Z,1002.55
2018-12-16T02:49:44.164Z,1002.51
2018-12-16T02:50:44.189Z,1002.51
2018-12-16T02:51:44.174Z,1002.46
2018-12-16T02:52:44.196Z,1002.39
2018-12-16T02:53:44.201Z,1002.33
2018-12-16T02:54:44.220Z,1002.32
2018-12-16T02:55:44.218Z,1002.27
2018-12-16T02:56:44.231Z,1002.29
2018-12-16T02:57:44.245Z,1002.24
2018-12-16T02:58:44.262Z,1002.25
2018-12-16T02:59:44.257Z,1002.21
2018-12-16T03:00:44.283Z,1002.21
2018-12-16T03:01:44.280Z,1002.25
2018-12-16T03:02:44.288Z,1002.20
2018-12-16T03:03:44.316Z,1002.23
2018-12-16T03:04:44.341Z,1002.15
2018-12-16T03:05:44.345Z,1002.13
2018-12-16T03:06:44.338Z,1002.11
2018-12-16T03:07:44.346Z,1002.09
2018-12-16T03:08:44.354Z,1002.07
2018-12-16T03:09:44.380Z,1002.02
2018-12-16T03:10:44.386Z,1002.00
2018-12-16T03:11:44.388Z,1001.98
2018-12-16T03:12:44.414Z,1001.93
2018-12-16T03:13:44.409Z,1001.95
2018-12-16T03:14:44.430Z,1001.92
2018-12-16T03:15:44.426Z,1001.84
2018-12-16T03:16:44.457Z,1001.89
2018-12-16T03:17:44.451Z,1001.85
2018-12-16T03:18:44.470Z,1001.82
2018-12-16T03:19:44.479Z,1001.76
2018-12-16T03:20:44.488Z,1001.71
2018-12-16T03:21:44.495Z,1001.70
2018-12-16T03:22:44.515Z,1001.67
2018-12-16T03:23:44.515Z,1001.65
2018-12-16T03:24:44.532Z,1001.61
2018-12-16T03:25:44.534Z,1001.63
2018-12-16T03:26:44.552Z,1001.57
2018-12-16T03:27:44.568Z,1001.55
2018-12-16T03:28:44.574Z,1001.54
2018-12-16T03:29:44.577Z,1001.50
2018-12-16T03:30:44.584Z,1001.46
2018-12-16T03:31:44.598Z,1001.46
2018-12-16T03:32:44.604Z,1001.38
2018-12-16T03:33:44.622Z,1001.38
2018-12-16T03:34:44.643Z,1001.34
2018-12-16T03:35:44.651Z,1001.36
2018-12-16T03:36:44.659Z,1001.33
2018-12-16T03:37:44.662Z,1001.31
2018-12-16T03:38:44.760Z,1001.31
2018-12-16T03:39:44.680Z,1001.28
2018-12-16T03:40:44.686Z,1001.26
2018-12-16T03:41:44.702Z,1001.22
2018-12-16T03:42:44.708Z,1001.19
2018-12-16T03:43:44.720Z,1001.17
2018-12-16T03:44:44.735Z,1001.21
2018-12-16T03:45:44.740Z,1001.15
2018-12-16T03:46:44.765Z,1001.13
2018-12-16T03:47:44.777Z,1001.14
2018-12-16T03:48:44.772Z,1001.11
2018-12-16T03:49:44.788Z,1001.01
2018-12-16T03:50:44.803Z,1001.00
2018-12-16T03:51:44.805Z,1000.99
2018-12-16T03:52:44.814Z,1000.94
2018-12-16T03:53:44.852Z,1001.00
2018-12-16T03:54:44.842Z,1000.99
2018-12-16T03:55:44.886Z,1000.97
2018-12-16T03:56:44.869Z,1000.95
2018-12-16T03:57:45.011Z,1000.91
2018-12-16T03:58:44.898Z,1000.87
2018-12-16T03:59:44.960Z,1000.83
2018-12-16T04:00:44.925Z,1000.80
2018-12-16T04:01:44.907Z,1000.80
2018-12-16T04:02:44.923Z,1000.75
2018-12-16T04:03:44.933Z,1000.75
2018-12-16T04:04:44.943Z,1000.72
2018-12-16T04:05:44.966Z,1000.66
2018-12-16T04:06:44.969Z,1000.66
2018-12-16T04:07:44.988Z,1000.61
2018-12-16T04:08:44.983Z,1000.61
2018-12-16T04:09:44.994Z,1000.58
2018-12-16T04:10:45.067Z,1000.58
2018-12-16T04:11:45.022Z,1000.52
2018-12-16T04:12:45.099Z,1000.52
2018-12-16T04:13:45.029Z,1000.48
2018-12-16T04:14:45.042Z,1000.50
2018-12-16T04:15:45.069Z,1000.50
2018-12-16T04:16:45.102Z,1000.50
2018-12-16T04:17:45.082Z,1000.48
2018-12-16T04:18:45.104Z,1000.42
2018-12-16T04:19:45.094Z,1000.42
2018-12-16T04:20:45.100Z,1000.35
2018-12-16T04:21:45.121Z,1000.39
2018-12-16T04:22:45.125Z,1000.34
2018-12-16T04:23:45.140Z,1000.37
2018-12-16T04:24:45.146Z,1000.34
2018-12-16T04:25:45.162Z,1000.39
2018-12-16T04:26:45.191Z,1000.33
2018-12-16T04:27:45.223Z,1000.39
2018-12-16T04:28:45.275Z,1000.43
2018-12-16T04:29:45.207Z,1000.42
2018-12-16T04:30:45.213Z,1000.42
2018-12-16T04:31:45.225Z,1000.41
2018-12-16T04:32:45.228Z,1000.41
2018-12-16T04:33:45.247Z,1000.41
2018-12-16T04:34:45.243Z,1000.43
2018-12-16T04:35:45.259Z,1000.43
2018-12-16T04:36:45.268Z,1000.40
2018-12-16T04:38:45.322Z,1000.38
2018-12-16T04:39:45.300Z,1000.41
2018-12-16T04:40:45.318Z,1000.41
2018-12-16T04:41:45.320Z,1000.44
2018-12-16T04:42:45.325Z,1000.43
2018-12-16T04:43:45.594Z,1000.45
2018-12-16T04:44:45.353Z,1000.44
2018-12-16T04:45:45.357Z,1000.48
2018-12-16T04:46:45.377Z,1000.54
2018-12-16T04:47:45.387Z,1000.56
2018-12-16T04:48:45.395Z,1000.57
2018-12-16T04:49:45.399Z,1000.53
2018-12-16T04:50:45.506Z,1000.55
2018-12-16T04:51:45.461Z,1000.54
2018-12-16T04:52:45.444Z,1000.57
2018-12-16T04:53:45.454Z,1000.57
2018-12-16T04:54:45.462Z,1000.61
2018-12-16T04:55:45.481Z,1000.62
2018-12-16T04:56:45.471Z,1000.61
2018-12-16T04:57:45.575Z,1000.58
2018-12-16T04:58:45.501Z,1000.59
2018-12-16T04:59:45.522Z,1000.66
2018-12-16T05:00:45.511Z,1000.62
2018-12-16T05:01:45.560Z,1000.65
2018-12-16T05:02:45.558Z,1000.67
2018-12-16T05:03:45.568Z,1000.72
2018-12-16T05:04:45.625Z,1000.75
2018-12-16T05:05:45.606Z,1000.77
2018-12-16T05:06:45.587Z,1000.74
2018-12-16T05:07:45.624Z,1000.75
2018-12-16T05:08:45.594Z,1000.71
2018-12-16T05:09:45.608Z,1000.74
2018-12-16T05:10:45.621Z,1000.78
2018-12-16T05:11:45.880Z,1000.71
2018-12-16T05:12:45.645Z,1000.75
2018-12-16T05:13:45.656Z,1000.77
2018-12-16T05:14:45.668Z,1000.75
2018-12-16T05:15:45.671Z,1000.75
2018-12-16T05:16:45.681Z,1000.77
2018-12-16T05:17:45.702Z,1000.80
2018-12-16T05:18:45.703Z,1000.80
2018-12-16T05:19:45.705Z,1000.80
2018-12-16T05:20:45.737Z,1000.79
2018-12-16T05:21:45.734Z,1000.83
2018-12-16T05:22:45.746Z,1000.82
2018-12-16T05:23:45.751Z,1000.85
2018-12-16T05:24:45.842Z,1000.84
2018-12-16T05:25:45.791Z,1000.81
2018-12-16T05:26:45.807Z,1000.77
2018-12-16T05:27:45.797Z,1000.75
2018-12-16T05:28:45.803Z,1000.74
2018-12-16T05:29:45.813Z,1000.74
2018-12-16T05:30:45.829Z,1000.72
2018-12-16T05:31:45.841Z,1000.76
2018-12-16T05:32:45.853Z,1000.75
2018-12-16T05:33:45.877Z,1000.75
2018-12-16T05:34:45.881Z,1000.73
2018-12-16T05:35:45.889Z,1000.70
2018-12-16T05:36:45.905Z,1000.71
2018-12-16T05:37:45.943Z,1000.73
2018-12-16T05:38:45.916Z,1000.77
2018-12-16T05:39:45.974Z,1000.81
2018-12-16T05:40:45.928Z,1000.77
2018-12-16T05:41:45.976Z,1000.77
2018-12-16T05:42:45.949Z,1000.77
2018-12-16T05:43:45.963Z,1000.72
2018-12-16T05:44:45.972Z,1000.68
2018-12-16T05:45:45.979Z,1000.67
2018-12-16T05:46:45.986Z,1000.62
2018-12-16T05:47:46.007Z,1000.62
2018-12-16T05:48:46.008Z,1000.52
2018-12-16T05:49:46.024Z,1000.52
2018-12-16T05:50:46.036Z,1000.59
2018-12-16T05:51:46.049Z,1000.60
2018-12-16T05:52:46.050Z,1000.58
2018-12-16T05:54:46.079Z,1000.60
2018-12-16T05:55:46.097Z,1000.61
2018-12-16T05:56:46.098Z,1000.65
2018-12-16T05:57:46.109Z,1000.66
2018-12-16T05:59:46.129Z,1000.70
2018-12-16T06:00:46.336Z,1000.70
2018-12-16T06:01:46.151Z,1000.72
2018-12-16T06:02:46.305Z,1000.81
2018-12-16T06:03:46.169Z,1000.78
2018-12-16T06:04:46.193Z,1000.74
2018-12-16T06:05:46.198Z,1000.75
2018-12-16T06:06:46.201Z,1000.72
2018-12-16T06:07:46.213Z,1000.75
2018-12-16T06:08:46.226Z,1000.77
2018-12-16T06:09:46.233Z,1000.75
2018-12-16T06:10:46.260Z,1000.74
2018-12-16T06:11:46.281Z,1000.73
2018-12-16T06:12:46.273Z,1000.72
2018-12-16T06:13:46.286Z,1000.72
2018-12-16T06:14:46.295Z,1000.67
2018-12-16T06:15:46.368Z,1000.66
2018-12-16T06:16:46.306Z,1000.66
2018-12-16T06:17:46.315Z,1000.68
2018-12-16T06:18:46.324Z,1000.62
2018-12-16T06:19:46.341Z,1000.58
2018-12-16T06:20:46.354Z,1000.55
2018-12-16T06:21:46.357Z,1000.51
2018-12-16T06:22:46.381Z,1000.51
2018-12-16T06:23:46.379Z,1000.53
2018-12-16T06:24:46.395Z,1000.55
2018-12-16T06:25:46.404Z,1000.49
2018-12-16T06:26:46.413Z,1000.49
2018-12-16T06:27:46.429Z,1000.49
2018-12-16T06:28:46.432Z,1000.44
2018-12-16T06:29:46.442Z,1000.42
2018-12-16T06:30:46.485Z,1000.42
2018-12-16T06:31:46.472Z,1000.38
2018-12-16T06:32:46.476Z,1000.41
2018-12-16T06:33:46.487Z,1000.39
2018-12-16T06:34:46.498Z,1000.36
2018-12-16T06:35:46.507Z,1000.32
2018-12-16T06:36:46.517Z,1000.27
2018-12-16T06:37:46.526Z,1000.29
2018-12-16T06:38:46.540Z,1000.31
2018-12-16T06:39:46.552Z,1000.26
2018-12-16T06:40:46.562Z,1000.31
2018-12-16T06:41:46.569Z,1000.35
2018-12-16T06:42:46.580Z,1000.36
2018-12-16T06:43:46.599Z,1000.33
2018-12-16T06:44:46.598Z,1000.34
2018-12-16T06:45:46.613Z,1000.36
2018-12-16T06:46:46.620Z,1000.38
2018-12-16T06:47:46.626Z,1000.38
2018-12-16T06:48:46.641Z,1000.37
2018-12-16T06:50:46.665Z,1000.36
2018-12-16T06:51:46.670Z,1000.34
2018-12-16T06:52:46.678Z,1000.39
2018-12-16T06:53:46.692Z,1000.42
2018-12-16T06:54:46.704Z,1000.47
2018-12-16T06:55:46.717Z,1000.48
2018-12-16T06:56:46.720Z,1000.43
2018-12-16T06:57:46.746Z,1000.48
2018-12-16T06:58:46.747Z,1000.55
2018-12-16T06:59:46.754Z,1000.52
2018-12-16T07:00:46.761Z,1000.53
2018-12-16T07:01:46.777Z,1000.53
2018-12-16T07:02:46.799Z,1000.52
2018-12-16T07:03:46.798Z,1000.55
2018-12-16T07:04:46.850Z,1000.52
2018-12-16T07:05:46.822Z,1000.52
2018-12-16T07:06:46.874Z,1000.54
2018-12-16T07:07:46.834Z,1000.57
2018-12-16T07:08:46.847Z,1000.57
2018-12-16T07:10:46.868Z,1000.67
2018-12-16T07:11:46.882Z,1000.71
2018-12-16T07:12:46.912Z,1000.73
2018-12-16T07:13:46.902Z,1000.73
2018-12-16T07:14:46.923Z,1000.75
2018-12-16T07:15:46.921Z,1000.76
2018-12-16T07:16:46.930Z,1000.74
2018-12-16T07:17:46.948Z,1000.75
2018-12-16T07:18:46.953Z,1000.76
2018-12-16T07:19:46.961Z,1000.77
2018-12-16T07:20:47.006Z,1000.78
2018-12-16T07:21:47.081Z,1000.90
2018-12-16T07:22:47.243Z,1000.91
2018-12-16T07:23:47.041Z,1000.89
2018-12-16T07:24:47.017Z,1000.95
2018-12-16T07:25:47.052Z,1000.96
2018-12-16T07:26:47.048Z,1001.01
2018-12-16T07:27:47.047Z,1001.02
2018-12-16T07:28:47.089Z,1001.01
2018-12-16T07:29:47.072Z,1001.08
2018-12-16T07:30:47.073Z,1001.05
2018-12-16T07:31:47.084Z,1001.08
2018-12-16T07:32:47.125Z,1001.06
2018-12-16T07:33:47.103Z,1001.04
2018-12-16T07:34:47.122Z,1001.01
2018-12-16T07:35:47.136Z,1001.03
2018-12-16T07:36:47.143Z,1001.06
2018-12-16T07:37:47.152Z,1001.01
2018-12-16T07:38:47.251Z,1001.08
2018-12-16T07:39:47.168Z,1001.06
2018-12-16T07:40:47.178Z,1001.07
2018-12-16T07:41:47.197Z,1001.06
2018-12-16T07:42:47.204Z,1001.12
2018-12-16T07:43:47.231Z,1001.13
2018-12-16T07:44:47.230Z,1001.17
2018-12-16T07:45:47.228Z,1001.17
2018-12-16T07:46:47.252Z,1001.18
2018-12-16T07:47:47.300Z,1001.18
2018-12-16T07:48:47.262Z,1001.25
2018-12-16T07:49:47.286Z,1001.25
2018-12-16T07:50:47.284Z,1001.28
2018-12-16T07:51:47.291Z,1001.29
2018-12-16T07:52:47.301Z,1001.31
2018-12-16T07:53:47.382Z,1001.31
2018-12-16T07:54:47.332Z,1001.32
2018-12-16T07:55:47.350Z,1001.25
2018-12-16T07:56:47.351Z,1001.28
2018-12-16T07:57:47.392Z,1001.27
2018-12-16T07:58:47.376Z,1001.24
2018-12-16T07:59:47.374Z,1001.35
2018-12-16T08:00:47.392Z,1001.36
2018-12-16T08:01:47.398Z,1001.43
2018-12-16T08:02:47.415Z,1001.45
2018-12-16T08:03:47.433Z,1001.46
2018-12-16T08:04:47.441Z,1001.50
2018-12-16T08:05:47.454Z,1001.54
2018-12-16T08:06:47.453Z,1001.52
2018-12-16T08:07:47.460Z,1001.50
2018-12-16T08:08:47.480Z,1001.52
2018-12-16T08:09:47.483Z,1001.54
2018-12-16T08:10:47.493Z,1001.52
2018-12-16T08:11:47.513Z,1001.47
2018-12-16T08:12:47.552Z,1001.42
2018-12-16T08:13:47.519Z,1001.38
2018-12-16T08:14:47.554Z,1001.44
2018-12-16T08:15:47.569Z,1001.43
2018-12-16T08:16:47.554Z,1001.39
2018-12-16T08:17:47.570Z,1001.46
2018-12-16T08:18:47.573Z,1001.44
2018-12-16T08:19:47.596Z,1001.47
2018-12-16T08:20:47.592Z,1001.47
2018-12-16T08:21:47.606Z,1001.47
2018-12-16T08:22:47.616Z,1001.49
2018-12-16T08:23:47.658Z,1001.46
2018-12-16T08:24:47.660Z,1001.51
2018-12-16T08:25:47.662Z,1001.54
2018-12-16T08:26:47.655Z,1001.54
2018-12-16T08:27:47.745Z,1001.58
2018-12-16T08:28:47.684Z,1001.60
2018-12-16T08:29:47.691Z,1001.58
2018-12-16T08:30:47.710Z,1001.62
2018-12-16T08:31:47.706Z,1001.61
2018-12-16T08:32:47.726Z,1001.63
2018-12-16T08:33:47.754Z,1001.65
2018-12-16T08:34:47.743Z,1001.70
2018-12-16T08:35:47.749Z,1001.74
2018-12-16T08:36:47.767Z,1001.68
2018-12-16T08:37:47.783Z,1001.72
2018-12-16T08:38:47.797Z,1001.75
2018-12-16T08:39:47.804Z,1001.71
2018-12-16T08:40:47.801Z,1001.66
2018-12-16T08:41:47.838Z,1001.70
2018-12-16T08:42:47.828Z,1001.68
2018-12-16T08:43:47.835Z,1001.69
2018-12-16T08:44:47.866Z,1001.67
2018-12-16T08:45:47.863Z,1001.66
2018-12-16T08:46:47.998Z,1001.61
2018-12-16T08:47:47.875Z,1001.66
2018-12-16T08:48:47.903Z,1001.65
2018-12-16T08:49:47.903Z,1001.66
2018-12-16T08:51:47.922Z,1001.68
2018-12-16T08:52:47.935Z,1001.71
2018-12-16T08:53:47.943Z,1001.65
2018-12-16T08:54:47.952Z,1001.68
2018-12-16T08:55:47.983Z,1001.74
2018-12-16T08:56:47.987Z,1001.69
2018-12-16T08:57:47.985Z,1001.73
2018-12-16T08:58:47.994Z,1001.68
2018-12-16T08:59:48.003Z,1001.71
2018-12-16T09:00:48.010Z,1001.65
2018-12-16T09:01:48.101Z,1001.67
2018-12-16T09:02:48.069Z,1001.71
2018-12-16T09:03:48.044Z,1001.68
2018-12-16T09:04:48.051Z,1001.70
2018-12-16T09:05:48.063Z,1001.72
2018-12-16T09:06:48.092Z,1001.71
2018-12-16T09:07:48.088Z,1001.70
2018-12-16T09:08:48.106Z,1001.71
2018-12-16T09:09:48.108Z,1001.78
2018-12-16T09:10:48.121Z,1001.73
2018-12-16T09:11:48.126Z,1001.80
2018-12-16T09:12:48.139Z,1001.75
2018-12-16T09:13:48.151Z,1001.81
2018-12-16T09:14:48.159Z,1001.84
2018-12-16T09:15:48.169Z,1001.82
2018-12-16T09:16:48.187Z,1001.87
2018-12-16T09:17:48.218Z,1001.88
2018-12-16T09:18:48.252Z,1001.90
2018-12-16T09:19:48.217Z,1001.88
2018-12-16T09:20:48.235Z,1001.94
2018-12-16T09:21:48.250Z,1001.98
2018-12-16T09:22:48.250Z,1001.92
2018-12-16T09:23:48.263Z,1001.96
2018-12-16T09:24:48.310Z,1001.93
2018-12-16T09:25:48.287Z,1001.95
2018-12-16T09:26:48.284Z,1001.94
2018-12-16T09:27:48.301Z,1002.00
2018-12-16T09:28:48.309Z,1002.02
2018-12-16T09:29:48.317Z,1002.06
2018-12-16T09:30:48.326Z,1002.02
2018-12-16T09:31:48.341Z,1002.05
2018-12-16T09:32:48.374Z,1002.10
2018-12-16T09:33:48.360Z,1002.12
2018-12-16T09:34:48.469Z,1002.15
2018-12-16T09:35:48.486Z,1002.12
2018-12-16T09:36:48.400Z,1002.17
2018-12-16T09:37:48.403Z,1002.17
2018-12-16T09:38:48.419Z,1002.12
2018-12-16T09:39:48.419Z,1002.12
2018-12-16T09:40:48.446Z,1002.14
2018-12-16T09:41:48.492Z,1002.16
2018-12-16T09:42:48.450Z,1002.15
2018-12-16T09:43:48.470Z,1002.16
2018-12-16T09:44:48.491Z,1002.16
2018-12-16T09:45:49.576Z,1002.07
2018-12-16T09:46:48.507Z,1002.17
2018-12-16T09:47:48.537Z,1002.15
2018-12-16T09:48:48.530Z,1002.16
2018-12-16T09:49:48.527Z,1002.11
2018-12-16T09:50:48.544Z,1002.14
2018-12-16T09:51:49.689Z,1002.14
2018-12-16T09:52:48.588Z,1002.12
2018-12-16T09:53:48.570Z,1002.17
2018-12-16T09:54:48.585Z,1002.09
2018-12-16T09:55:48.589Z,1002.12
2018-12-16T09:56:48.681Z,1002.13
2018-12-16T09:57:48.613Z,1002.14
2018-12-16T09:58:48.654Z,1002.14
2018-12-16T09:59:48.641Z,1002.10
2018-12-16T10:00:48.647Z,1002.10
2018-12-16T10:01:48.660Z,1002.10
2018-12-16T10:02:48.670Z,1002.10
2018-12-16T10:03:48.678Z,1002.12
2018-12-16T10:04:48.695Z,1002.13
2018-12-16T10:05:48.700Z,1002.15
2018-12-16T10:06:48.712Z,1002.10
2018-12-16T10:07:48.720Z,1002.14
2018-12-16T10:08:48.740Z,1002.16
2018-12-16T10:09:48.787Z,1002.15
2018-12-16T10:10:48.747Z,1002.14
2018-12-16T10:11:48.781Z,1002.17
2018-12-16T10:12:48.785Z,1002.16
2018-12-16T10:13:48.787Z,1002.15
2018-12-16T10:14:48.795Z,1002.11
2018-12-16T10:15:48.848Z,1002.07
2018-12-16T10:16:48.822Z,1002.03
2018-12-16T10:17:48.837Z,1001.99
2018-12-16T10:18:48.899Z,1001.96
2018-12-16T10:19:48.850Z,1001.94
2018-12-16T10:20:48.868Z,1001.90
2018-12-16T10:21:48.872Z,1001.90
2018-12-16T10:22:48.875Z,1001.91
2018-12-16T10:23:48.888Z,1001.88
2018-12-16T10:24:51.460Z,1001.88
2018-12-16T10:25:48.918Z,1001.87
2018-12-16T10:26:49.059Z,1001.85
2018-12-16T10:27:48.940Z,1001.87
2018-12-16T10:28:48.963Z,1001.83
2018-12-16T10:29:48.970Z,1001.86
2018-12-16T10:30:49.998Z,1001.87
2018-12-16T10:31:48.978Z,1001.85
2018-12-16T10:32:48.994Z,1001.84
2018-12-16T10:33:48.995Z,1001.85
2018-12-16T10:34:49.014Z,1001.83
2018-12-16T10:35:49.021Z,1001.84
2018-12-16T10:36:49.037Z,1001.82
2018-12-16T10:37:49.055Z,1001.82
2018-12-16T10:38:49.064Z,1001.82
2018-12-16T10:39:49.088Z,1001.78
2018-12-16T10:40:49.075Z,1001.79
2018-12-16T10:41:49.085Z,1001.79
2018-12-16T10:42:49.101Z,1001.77
2018-12-16T10:43:49.222Z,1001.74
2018-12-16T10:44:49.117Z,1001.69
2018-12-16T10:45:49.126Z,1001.62
2018-12-16T10:46:49.167Z,1001.61
2018-12-16T10:47:49.164Z,1001.61
2018-12-16T10:48:49.164Z,1001.56
2018-12-16T10:49:49.180Z,1001.59
2018-12-16T10:50:49.199Z,1001.60
2018-12-16T10:51:49.211Z,1001.60
2018-12-16T10:52:49.206Z,1001.64
2018-12-16T10:53:49.217Z,1001.61
2018-12-16T10:54:49.233Z,1001.59
2018-12-16T10:55:49.231Z,1001.62
2018-12-16T10:56:49.246Z,1001.58
2018-12-16T10:57:49.260Z,1001.59
2018-12-16T10:58:49.295Z,1001.56
2018-12-16T10:59:49.276Z,1001.58
2018-12-16T11:00:49.433Z,1001.58
2018-12-16T11:01:49.305Z,1001.56
2018-12-16T11:02:49.314Z,1001.55
2018-12-16T11:03:49.346Z,1001.52
2018-12-16T11:04:49.339Z,1001.49
2018-12-16T11:05:49.348Z,1001.52
2018-12-16T11:06:49.366Z,1001.55
2018-12-16T11:07:49.371Z,1001.58
2018-12-16T11:08:49.379Z,1001.61
2018-12-16T11:09:49.393Z,1001.64
2018-12-16T11:10:49.400Z,1001.62
2018-12-16T11:11:49.417Z,1001.64
2018-12-16T11:12:49.431Z,1001.61
2018-12-16T11:13:49.467Z,1001.63
2018-12-16T11:14:49.481Z,1001.67
2018-12-16T11:15:49.473Z,1001.70
2018-12-16T11:16:49.480Z,1001.68
2018-12-16T11:18:49.500Z,1001.65
2018-12-16T11:19:49.504Z,1001.65
2018-12-16T11:20:49.515Z,1001.58
2018-12-16T11:21:49.580Z,1001.60
2018-12-16T11:22:49.534Z,1001.55
2018-12-16T11:23:53.818Z,1001.50
2018-12-16T11:24:49.558Z,1001.50
2018-12-16T11:25:49.559Z,1001.53
2018-12-16T11:26:49.581Z,1001.52
2018-12-16T11:27:49.600Z,1001.56
2018-12-16T11:28:49.607Z,1001.49
2018-12-16T11:29:49.613Z,1001.47
2018-12-16T11:30:49.686Z,1001.53
2018-12-16T11:31:49.626Z,1001.53
2018-12-16T11:32:49.642Z,1001.52
2018-12-16T11:33:49.659Z,1001.57
2018-12-16T11:34:49.680Z,1001.52
2018-12-16T11:35:49.672Z,1001.52
2018-12-16T11:36:49.682Z,1001.59
2018-12-16T11:37:49.695Z,1001.55
2018-12-16T11:38:49.730Z,1001.55
2018-12-16T11:39:49.739Z,1001.56
2018-12-16T11:40:49.727Z,1001.55
2018-12-16T11:41:49.742Z,1001.55
2018-12-16T11:42:49.761Z,1001.50
2018-12-16T11:43:49.761Z,1001.53
2018-12-16T11:44:49.771Z,1001.50
2018-12-16T11:45:49.838Z,1001.43
2018-12-16T11:46:49.808Z,1001.39
2018-12-16T11:47:49.801Z,1001.39
2018-12-16T11:48:49.814Z,1001.37
2018-12-16T11:49:49.947Z,1001.38
2018-12-16T11:50:49.837Z,1001.31
2018-12-16T11:51:49.958Z,1001.32
2018-12-16T11:52:49.863Z,1001.32
2018-12-16T11:53:49.870Z,1001.28
2018-12-16T11:54:49.891Z,1001.30
2018-12-16T11:55:49.928Z,1001.28
2018-12-16T11:56:49.923Z,1001.27
2018-12-16T11:57:49.914Z,1001.26
2018-12-16T11:58:49.963Z,1001.26
2018-12-16T11:59:49.942Z,1001.28
2018-12-16T12:00:49.956Z,1001.31
2018-12-16T12:01:49.966Z,1001.28
2018-12-16T12:02:49.976Z,1001.28
2018-12-16T12:03:49.979Z,1001.26
2018-12-16T12:04:49.997Z,1001.24
2018-12-16T12:05:50.020Z,1001.23
2018-12-16T12:06:50.027Z,1001.22
2018-12-16T12:07:50.025Z,1001.30
2018-12-16T12:08:50.056Z,1001.30
2018-12-16T12:09:50.056Z,1001.29
2018-12-16T12:10:50.084Z,1001.35
2018-12-16T12:11:50.087Z,1001.39
2018-12-16T12:12:50.136Z,1001.41